createdAt,value
2018-09-15T00:03:03.877Z,7.50
2018-09-15T00:07:58.364Z,8.87
2018-09-15T00:12:52.948Z,9.47
2018-09-15T00:17:48.250Z,7.43
2018-09-15T00:22:43.055Z,5.33
2018-09-15T00:27:37.731Z,8.23
2018-09-15T00:32:32.404Z,8.40
2018-09-15T00:37:26.906Z,8.87
2018-09-15T00:42:21.370Z,11.33
2018-09-15T00:47:16.060Z,7.63
2018-09-15T00:52:10.536Z,6.13
2018-09-15T00:57:05.286Z,5.47
2018-09-15T01:02:00.024Z,6.00
2018-09-15T01:06:54.766Z,6.53
2018-09-15T01:11:49.792Z,7.03
2018-09-15T01:16:44.424Z,7.50
2018-09-15T01:21:39.026Z,6.80
2018-09-15T01:26:33.657Z,8.53
2018-09-15T01:31:28.857Z,4.83
2018-09-15T01:36:24.567Z,9.03
2018-09-15T01:41:19.088Z,5.00
2018-09-15T01:46:14.395Z,5.57
2018-09-15T01:51:09.711Z,6.40
2018-09-15T01:56:04.204Z,5.73
2018-09-15T02:00:58.709Z,6.33
2018-09-15T02:05:53.374Z,7.23
2018-09-15T02:10:47.824Z,4.33
2018-09-15T02:15:42.601Z,5.40
2018-09-15T02:20:37.070Z,4.70
2018-09-15T02:25:31.629Z,5.80
2018-09-15T02:30:26.144Z,4.43
2018-09-15T02:35:20.624Z,4.30
2018-09-15T02:40:15.222Z,5.03
2018-09-15T02:45:09.822Z,4.00
2018-09-15T02:50:04.596Z,7.80
2018-09-15T02:54:59.076Z,4.90
2018-09-15T02:59:54.069Z,5.50
2018-09-15T03:04:48.639Z,9.37
2018-09-15T03:09:43.091Z,9.50
2018-09-15T03:14:37.549Z,5.83
2018-09-15T03:19:32.043Z,6.07
2018-09-15T03:24:26.634Z,5.33
2018-09-15T03:29:21.164Z,6.33
2018-09-15T03:34:15.620Z,7.03
2018-09-15T03:39:11.776Z,5.13
2018-09-15T03:44:06.244Z,3.77
2018-09-15T03:49:00.788Z,5.10
2018-09-15T03:53:55.250Z,5.57
2018-09-15T03:58:49.710Z,7.17
2018-09-15T04:03:44.481Z,7.00
2018-09-15T04:08:39.104Z,6.73
2018-09-15T04:13:33.566Z,6.17
2018-09-15T04:18:28.020Z,4.20
2018-09-15T04:23:22.475Z,6.97
2018-09-15T04:28:16.983Z,4.57
2018-09-15T04:33:11.648Z,6.67
2018-09-15T04:38:06.712Z,5.30
2018-09-15T04:43:01.737Z,10.13
2018-09-15T04:47:56.189Z,8.07
2018-09-15T04:52:50.683Z,3.97
2018-09-15T04:57:45.347Z,7.77
2018-09-15T05:02:39.798Z,4.00
2018-09-15T05:07:34.254Z,6.13
2018-09-15T05:12:28.772Z,6.43
2018-09-15T05:17:23.522Z,4.90
2018-09-15T05:22:18.104Z,4.70
2018-09-15T05:27:12.738Z,4.57
2018-09-15T05:32:07.454Z,5.47
2018-09-15T05:37:02.198Z,5.77
2018-09-15T05:41:56.852Z,6.10
2018-09-15T05:46:51.302Z,9.53
2018-09-15T05:51:45.861Z,8.47
2018-09-15T05:56:40.399Z,5.60
2018-09-15T06:01:34.932Z,9.23
2018-09-15T06:06:30.223Z,8.00
2018-09-15T06:11:25.068Z,7.20
2018-09-15T06:16:19.610Z,11.40
2018-09-15T06:21:14.316Z,11.57
2018-09-15T06:26:10.242Z,5.93
2018-09-15T06:31:04.733Z,6.03
2018-09-15T06:35:59.560Z,6.20
2018-09-15T06:40:54.193Z,5.07
2018-09-15T06:45:48.900Z,5.40
2018-09-15T06:50:43.693Z,7.33
2018-09-15T06:55:38.216Z,5.27
2018-09-15T07:00:33.009Z,5.23
2018-09-15T07:05:28.049Z,5.20
2018-09-15T07:10:23.255Z,6.97
2018-09-15T07:15:18.184Z,5.30
2018-09-15T07:20:13.207Z,6.23
2018-09-15T07:25:08.432Z,5.97
2018-09-15T07:30:03.205Z,5.07
2018-09-15T07:34:57.982Z,5.10
2018-09-15T07:39:52.697Z,6.73
2018-09-15T07:44:47.800Z,7.57
2018-09-15T07:49:42.582Z,12.33
2018-09-15T07:54:37.640Z,6.03
2018-09-15T07:59:32.512Z,10.37
2018-09-15T08:04:27.293Z,8.53
2018-09-15T08:09:22.052Z,7.03
2018-09-15T08:14:16.827Z,5.60
2018-09-15T08:19:11.899Z,4.10
2018-09-15T08:24:07.326Z,6.60
2018-09-15T08:29:02.069Z,6.23
2018-09-15T08:33:56.894Z,5.43
2018-09-15T08:38:51.902Z,7.20
2018-09-15T08:43:46.802Z,7.20
2018-09-15T08:48:42.102Z,6.93
2018-09-15T08:53:36.916Z,6.63
2018-09-15T08:58:31.677Z,7.27
2018-09-15T09:03:26.437Z,5.83
2018-09-15T09:08:21.553Z,7.93
2018-09-15T09:13:16.568Z,7.87
2018-09-15T09:18:11.696Z,6.93
2018-09-15T09:23:06.700Z,7.57
2018-09-15T09:28:01.587Z,10.53
2018-09-15T09:32:56.484Z,9.17
2018-09-15T09:37:51.270Z,4.50
2018-09-15T09:42:46.048Z,5.03
2018-09-15T09:47:41.286Z,4.83
2018-09-15T09:52:36.283Z,5.43
2018-09-15T09:57:31.038Z,6.20
2018-09-15T10:02:26.131Z,9.20
2018-09-15T10:07:21.542Z,5.57
2018-09-15T10:12:16.408Z,5.63
2018-09-15T10:17:11.068Z,5.97
2018-09-15T10:22:05.569Z,7.60
2018-09-15T10:27:00.043Z,5.10
2018-09-15T10:31:54.553Z,8.33
2018-09-15T10:36:49.694Z,7.10
2018-09-15T10:41:44.174Z,4.97
2018-09-15T10:46:39.197Z,6.97
2018-09-15T10:51:33.780Z,6.40
2018-09-15T10:56:28.265Z,4.33
2018-09-15T11:01:22.724Z,6.67
2018-09-15T11:06:17.247Z,4.43
2018-09-15T11:11:11.725Z,4.40
2018-09-15T11:16:06.345Z,3.30
2018-09-15T11:21:01.484Z,4.13
2018-09-15T11:25:55.996Z,5.60
2018-09-15T11:30:50.577Z,4.07
2018-09-15T11:35:45.109Z,4.10
2018-09-15T11:40:40.018Z,8.77
2018-09-15T11:45:34.706Z,5.53
2018-09-15T11:50:29.600Z,4.27
2018-09-15T11:55:24.756Z,4.63
2018-09-15T12:00:26.272Z,6.03
2018-09-15T12:05:21.617Z,2.67
2018-09-15T12:10:16.445Z,6.67
2018-09-15T12:15:10.994Z,5.53
2018-09-15T12:20:05.898Z,8.07
2018-09-15T12:25:00.874Z,3.47
2018-09-15T12:29:56.678Z,10.87
2018-09-15T12:34:50.299Z,3.80
2018-09-15T12:39:44.859Z,4.60
2018-09-15T12:44:39.382Z,5.53
2018-09-15T12:49:34.159Z,2.63
2018-09-15T12:54:29.033Z,3.73
2018-09-15T12:59:23.615Z,3.73
2018-09-15T13:04:18.079Z,6.10
2018-09-15T13:09:13.482Z,2.83
2018-09-15T13:14:08.481Z,4.50
2018-09-15T13:19:03.419Z,3.97
2018-09-15T13:23:57.913Z,2.87
2018-09-15T13:28:52.530Z,1.70
2018-09-15T13:33:47.317Z,3.23
2018-09-15T13:38:41.759Z,3.20
2018-09-15T13:43:36.268Z,2.73
2018-09-15T13:48:30.953Z,2.50
2018-09-15T13:53:25.523Z,4.23
2018-09-15T13:58:20.139Z,4.73
2018-09-15T14:03:15.004Z,4.27
2018-09-15T14:08:10.196Z,5.27
2018-09-15T14:13:05.053Z,3.00
2018-09-15T14:18:00.063Z,3.33
2018-09-15T14:22:55.031Z,5.50
2018-09-15T14:27:50.237Z,3.67
2018-09-15T14:32:44.745Z,4.70
2018-09-15T14:37:39.789Z,5.23
2018-09-15T14:42:34.875Z,4.27
2018-09-15T14:47:29.875Z,3.93
2018-09-15T14:52:25.778Z,5.10
2018-09-15T14:57:21.368Z,5.00
2018-09-15T15:02:15.950Z,5.17
2018-09-15T15:07:10.401Z,2.43
2018-09-15T15:12:04.878Z,6.40
2018-09-15T15:16:59.379Z,10.60
2018-09-15T15:21:54.223Z,11.27
2018-09-15T15:26:48.715Z,4.23
2018-09-15T15:31:43.187Z,3.10
2018-09-15T15:36:37.827Z,4.43
2018-09-15T15:41:32.292Z,5.90
2018-09-15T15:46:26.870Z,4.00
2018-09-15T15:51:21.612Z,5.33
2018-09-15T15:56:16.596Z,3.33
2018-09-15T16:01:12.069Z,4.07
2018-09-15T16:06:06.548Z,2.60
2018-09-15T16:11:01.365Z,4.67
2018-09-15T16:15:58.297Z,4.13
2018-09-15T16:20:53.247Z,4.70
2018-09-15T16:25:48.030Z,2.63
2018-09-15T16:30:42.514Z,3.97
2018-09-15T16:35:39.366Z,4.00
2018-09-15T16:40:37.543Z,2.67
2018-09-15T16:45:36.603Z,3.77
2018-09-15T16:50:32.665Z,2.60
2018-09-15T16:55:28.636Z,2.30
2018-09-15T17:00:26.273Z,4.07
2018-09-15T17:05:22.871Z,4.13
2018-09-15T17:10:19.771Z,7.30
2018-09-15T17:15:16.381Z,5.87
2018-09-15T17:20:16.047Z,5.07
2018-09-15T17:25:12.300Z,3.33
2018-09-15T17:30:08.377Z,5.13
2018-09-15T17:35:04.155Z,6.60
2018-09-15T17:39:59.905Z,5.80
2018-09-15T17:44:55.036Z,9.97
2018-09-15T17:49:50.976Z,4.23
2018-09-15T17:54:47.514Z,4.37
2018-09-15T17:59:42.754Z,4.63
2018-09-15T18:04:38.015Z,5.93
2018-09-15T18:09:33.126Z,4.70
2018-09-15T18:14:28.533Z,6.57
2018-09-15T18:19:24.123Z,6.20
2018-09-15T18:24:19.535Z,5.00
2018-09-15T18:29:16.507Z,4.57
2018-09-15T18:34:12.353Z,5.73
2018-09-15T18:39:10.826Z,4.43
2018-09-15T18:44:05.637Z,6.83
2018-09-15T18:49:00.562Z,9.90
2018-09-15T18:53:55.324Z,10.10
2018-09-15T18:58:49.858Z,8.83
2018-09-15T19:03:47.258Z,9.10
2018-09-15T19:08:43.035Z,8.73
2018-09-15T19:13:37.879Z,21.67
2018-09-15T19:18:33.297Z,29.50
2018-09-15T19:23:28.538Z,20.67
2018-09-15T19:28:23.536Z,21.33
2018-09-15T19:33:18.606Z,23.57
2018-09-15T19:38:13.824Z,24.33
2018-09-15T19:43:11.691Z,24.13
2018-09-15T19:48:07.331Z,13.20
2018-09-15T19:53:02.845Z,6.23
2018-09-15T19:57:58.639Z,8.90
2018-09-15T20:02:54.110Z,5.97
2018-09-15T20:07:51.612Z,3.90
2018-09-15T20:12:48.128Z,4.87
2018-09-15T20:17:41.466Z,7.37
2018-09-15T20:22:42.376Z,8.17
2018-09-15T20:28:21.724Z,5.07
2018-09-15T20:33:16.671Z,7.30
2018-09-15T20:38:12.068Z,10.63
2018-09-15T20:43:06.952Z,5.47
2018-09-15T20:48:02.157Z,6.90
2018-09-15T20:52:57.008Z,4.90
2018-09-15T20:57:52.735Z,6.37
2018-09-15T21:02:47.696Z,9.00
2018-09-15T21:07:42.672Z,8.17
2018-09-15T21:12:37.343Z,8.87
2018-09-15T21:17:32.228Z,5.93
2018-09-15T21:22:27.384Z,5.67
2018-09-15T21:27:22.284Z,7.03
2018-09-15T21:32:17.150Z,5.60
2018-09-15T21:37:11.864Z,6.27
2018-09-15T21:42:06.856Z,8.17
2018-09-15T21:47:01.525Z,6.70
2018-09-15T21:51:56.341Z,8.20
2018-09-15T21:56:51.872Z,10.70
2018-09-15T22:01:46.815Z,12.07
2018-09-15T22:06:42.213Z,13.30
2018-09-15T22:11:37.234Z,9.40
2018-09-15T22:16:32.466Z,9.27
2018-09-15T22:21:27.689Z,11.13
2018-09-15T22:26:22.583Z,7.97
2018-09-15T22:31:17.076Z,9.33
2018-09-15T22:36:11.598Z,8.27
2018-09-15T22:41:07.671Z,10.67
2018-09-15T22:46:02.329Z,7.47
2018-09-15T22:50:57.650Z,9.67
2018-09-15T22:55:52.771Z,10.90
2018-09-15T23:00:47.916Z,10.47
2018-09-15T23:05:43.152Z,7.77
2018-09-15T23:10:38.273Z,9.07
2018-09-15T23:15:33.111Z,9.97
2018-09-15T23:20:27.591Z,7.43
2018-09-15T23:25:22.206Z,8.30
2018-09-15T23:30:16.658Z,6.13
2018-09-15T23:35:11.127Z,9.23
2018-09-15T23:40:05.768Z,5.60
2018-09-15T23:45:00.660Z,6.40
2018-09-15T23:49:55.402Z,8.93
2018-09-15T23:54:50.897Z,9.40
2018-09-15T23:59:45.592Z,8.67
